sensor_id;sensor_type;location;lat;lon;timestamp;P1;durP1;ratioP1;P2;durP2;ratioP2
16866;SDS011;8550;52.596;13.320;2023-08-31T00:05:00;4.27;;;2.30;;
16866;SDS011;8550;52.596;13.320;2023-08-31T00:10:02;4.47;;;1.85;;
16866;SDS011;8550;52.596;13.320;2023-08-31T00:15:10;6.03;;;2.40;;
16866;SDS011;8550;52.596;13.320;2023-08-31T00:20:13;4.97;;;2.33;;
16866;SDS011;8550;52.596;13.320;2023-08-31T00:25:15;4.70;;;2.73;;
16866;SDS011;8550;52.596;13.320;2023-08-31T00:30:19;7.00;;;2.72;;
16866;SDS011;8550;52.596;13.320;2023-08-31T00:35:21;4.88;;;2.25;;
16866;SDS011;8550;52.596;13.320;2023-08-31T00:40:23;4.53;;;2.10;;
16866;SDS011;8550;52.596;13.320;2023-08-31T00:45:26;6.88;;;2.38;;
16866;SDS011;8550;52.596;13.320;2023-08-31T00:50:28;4.75;;;2.42;;
16866;SDS011;8550;52.596;13.320;2023-08-31T00:55:31;5.03;;;2.43;;
16866;SDS011;8550;52.596;13.320;2023-08-31T01:00:36;4.70;;;2.65;;
16866;SDS011;8550;52.596;13.320;2023-08-31T01:05:44;6.47;;;2.92;;
16866;SDS011;8550;52.596;13.320;2023-08-31T01:11:07;4.90;;;2.10;;
16866;SDS011;8550;52.596;13.320;2023-08-31T01:16:18;7.70;;;3.23;;
16866;SDS011;8550;52.596;13.320;2023-08-31T01:21:24;6.00;;;3.10;;
16866;SDS011;8550;52.596;13.320;2023-08-31T01:26:30;5.93;;;2.70;;
16866;SDS011;8550;52.596;13.320;2023-08-31T01:31:32;6.13;;;2.73;;
16866;SDS011;8550;52.596;13.320;2023-08-31T01:36:42;5.70;;;2.53;;
16866;SDS011;8550;52.596;13.320;2023-08-31T01:41:50;8.43;;;2.00;;
16866;SDS011;8550;52.596;13.320;2023-08-31T01:47:01;3.80;;;1.40;;
16866;SDS011;8550;52.596;13.320;2023-08-31T01:52:06;3.55;;;1.58;;
16866;SDS011;8550;52.596;13.320;2023-08-31T01:57:09;4.38;;;1.52;;
16866;SDS011;8550;52.596;13.320;2023-08-31T02:02:14;4.67;;;1.40;;
16866;SDS011;8550;52.596;13.320;2023-08-31T02:07:16;4.10;;;1.90;;
16866;SDS011;8550;52.596;13.320;2023-08-31T02:12:20;3.53;;;1.20;;
16866;SDS011;8550;52.596;13.320;2023-08-31T02:17:21;3.33;;;1.38;;
16866;SDS011;8550;52.596;13.320;2023-08-31T02:22:23;4.00;;;0.90;;
16866;SDS011;8550;52.596;13.320;2023-08-31T02:27:27;3.13;;;1.30;;
16866;SDS011;8550;52.596;13.320;2023-08-31T02:32:29;3.35;;;1.20;;
16866;SDS011;8550;52.596;13.320;2023-08-31T02:37:30;2.63;;;0.93;;
16866;SDS011;8550;52.596;13.320;2023-08-31T02:42:34;2.72;;;0.90;;
16866;SDS011;8550;52.596;13.320;2023-08-31T02:47:36;3.28;;;1.10;;
16866;SDS011;8550;52.596;13.320;2023-08-31T02:52:39;3.73;;;1.03;;
16866;SDS011;8550;52.596;13.320;2023-08-31T02:57:43;2.90;;;0.90;;
16866;SDS011;8550;52.596;13.320;2023-08-31T03:02:45;3.83;;;1.15;;
16866;SDS011;8550;52.596;13.320;2023-08-31T03:07:47;3.92;;;1.40;;
16866;SDS011;8550;52.596;13.320;2023-08-31T03:12:50;3.00;;;1.13;;
16866;SDS011;8550;52.596;13.320;2023-08-31T03:17:52;2.85;;;0.95;;
16866;SDS011;8550;52.596;13.320;2023-08-31T03:22:54;2.88;;;1.13;;
16866;SDS011;8550;52.596;13.320;2023-08-31T03:27:57;4.67;;;1.37;;
16866;SDS011;8550;52.596;13.320;2023-08-31T03:32:59;4.55;;;0.98;;
16866;SDS011;8550;52.596;13.320;2023-08-31T03:38:02;2.33;;;0.80;;
16866;SDS011;8550;52.596;13.320;2023-08-31T03:43:05;3.43;;;1.20;;
16866;SDS011;8550;52.596;13.320;2023-08-31T03:48:07;3.00;;;1.13;;
16866;SDS011;8550;52.596;13.320;2023-08-31T03:53:09;3.67;;;1.40;;
16866;SDS011;8550;52.596;13.320;2023-08-31T03:58:12;3.90;;;1.60;;
16866;SDS011;8550;52.596;13.320;2023-08-31T04:03:14;4.00;;;1.37;;
16866;SDS011;8550;52.596;13.320;2023-08-31T04:08:16;3.75;;;1.60;;
16866;SDS011;8550;52.596;13.320;2023-08-31T04:13:19;4.78;;;1.42;;
16866;SDS011;8550;52.596;13.320;2023-08-31T04:18:21;5.07;;;1.90;;
16866;SDS011;8550;52.596;13.320;2023-08-31T04:23:23;4.75;;;1.75;;
16866;SDS011;8550;52.596;13.320;2023-08-31T04:28:27;4.18;;;1.80;;
16866;SDS011;8550;52.596;13.320;2023-08-31T04:33:28;6.27;;;1.90;;
16866;SDS011;8550;52.596;13.320;2023-08-31T04:38:30;5.43;;;2.60;;
16866;SDS011;8550;52.596;13.320;2023-08-31T04:43:34;6.05;;;2.90;;
16866;SDS011;8550;52.596;13.320;2023-08-31T04:48:35;6.07;;;2.53;;
16866;SDS011;8550;52.596;13.320;2023-08-31T04:53:38;5.90;;;2.90;;
16866;SDS011;8550;52.596;13.320;2023-08-31T04:58:41;7.47;;;2.75;;
16866;SDS011;8550;52.596;13.320;2023-08-31T05:03:43;7.13;;;3.03;;
16866;SDS011;8550;52.596;13.320;2023-08-31T05:08:45;8.33;;;3.23;;
16866;SDS011;8550;52.596;13.320;2023-08-31T05:13:48;5.75;;;2.70;;
16866;SDS011;8550;52.596;13.320;2023-08-31T05:18:50;6.88;;;3.50;;
16866;SDS011;8550;52.596;13.320;2023-08-31T05:23:52;9.13;;;3.97;;
16866;SDS011;8550;52.596;13.320;2023-08-31T05:28:56;7.07;;;3.37;;
16866;SDS011;8550;52.596;13.320;2023-08-31T05:33:57;8.00;;;3.55;;
16866;SDS011;8550;52.596;13.320;2023-08-31T05:39:00;7.13;;;3.55;;
16866;SDS011;8550;52.596;13.320;2023-08-31T05:44:03;5.13;;;2.67;;
16866;SDS011;8550;52.596;13.320;2023-08-31T05:49:05;7.93;;;3.75;;
16866;SDS011;8550;52.596;13.320;2023-08-31T05:54:08;9.02;;;3.78;;
16866;SDS011;8550;52.596;13.320;2023-08-31T05:59:13;6.57;;;3.40;;
16866;SDS011;8550;52.596;13.320;2023-08-31T06:04:15;6.85;;;3.10;;
16866;SDS011;8550;52.596;13.320;2023-08-31T06:09:17;7.45;;;3.58;;
16866;SDS011;8550;52.596;13.320;2023-08-31T06:14:20;8.70;;;3.43;;
16866;SDS011;8550;52.596;13.320;2023-08-31T06:19:22;8.10;;;3.37;;
16866;SDS011;8550;52.596;13.320;2023-08-31T06:24:24;10.18;;;3.78;;
16866;SDS011;8550;52.596;13.320;2023-08-31T06:29:27;8.07;;;3.72;;
16866;SDS011;8550;52.596;13.320;2023-08-31T06:34:29;9.33;;;4.40;;
16866;SDS011;8550;52.596;13.320;2023-08-31T06:39:31;9.68;;;3.53;;
16866;SDS011;8550;52.596;13.320;2023-08-31T06:44:35;7.57;;;3.13;;
16866;SDS011;8550;52.596;13.320;2023-08-31T06:49:37;6.10;;;2.97;;
16866;SDS011;8550;52.596;13.320;2023-08-31T06:54:39;6.85;;;2.95;;
16866;SDS011;8550;52.596;13.320;2023-08-31T06:59:42;6.55;;;3.05;;
16866;SDS011;8550;52.596;13.320;2023-08-31T07:04:44;6.67;;;3.33;;
16866;SDS011;8550;52.596;13.320;2023-08-31T07:09:48;7.40;;;3.60;;
16866;SDS011;8550;52.596;13.320;2023-08-31T07:14:51;7.38;;;2.72;;
16866;SDS011;8550;52.596;13.320;2023-08-31T07:19:53;8.35;;;3.35;;
16866;SDS011;8550;52.596;13.320;2023-08-31T07:24:55;8.07;;;2.60;;
16866;SDS011;8550;52.596;13.320;2023-08-31T07:29:58;6.22;;;2.80;;
16866;SDS011;8550;52.596;13.320;2023-08-31T07:35:00;9.48;;;2.47;;
16866;SDS011;8550;52.596;13.320;2023-08-31T07:40:05;5.87;;;2.20;;
16866;SDS011;8550;52.596;13.320;2023-08-31T07:45:11;6.20;;;2.10;;
16866;SDS011;8550;52.596;13.320;2023-08-31T07:50:13;5.03;;;2.10;;
16866;SDS011;8550;52.596;13.320;2023-08-31T07:55:16;7.10;;;2.37;;
16866;SDS011;8550;52.596;13.320;2023-08-31T08:00:19;5.73;;;2.27;;
16866;SDS011;8550;52.596;13.320;2023-08-31T08:05:21;5.40;;;2.15;;
16866;SDS011;8550;52.596;13.320;2023-08-31T08:10:23;6.40;;;1.88;;
16866;SDS011;8550;52.596;13.320;2023-08-31T08:15:26;5.97;;;2.10;;
16866;SDS011;8550;52.596;13.320;2023-08-31T08:20:28;4.68;;;1.90;;
16866;SDS011;8550;52.596;13.320;2023-08-31T08:25:30;5.32;;;1.58;;
16866;SDS011;8550;52.596;13.320;2023-08-31T08:30:33;6.50;;;1.87;;
16866;SDS011;8550;52.596;13.320;2023-08-31T08:35:36;4.18;;;1.50;;
16866;SDS011;8550;52.596;13.320;2023-08-31T08:40:39;3.92;;;1.42;;
16866;SDS011;8550;52.596;13.320;2023-08-31T08:45:42;3.43;;;1.40;;
16866;SDS011;8550;52.596;13.320;2023-08-31T08:50:50;4.23;;;0.90;;
16866;SDS011;8550;52.596;13.320;2023-08-31T08:55:53;2.92;;;1.13;;
16866;SDS011;8550;52.596;13.320;2023-08-31T09:00:56;3.17;;;1.08;;
16866;SDS011;8550;52.596;13.320;2023-08-31T09:05:58;4.40;;;0.83;;
16866;SDS011;8550;52.596;13.320;2023-08-31T09:11:01;2.58;;;0.70;;
16866;SDS011;8550;52.596;13.320;2023-08-31T09:16:04;1.83;;;0.60;;
16866;SDS011;8550;52.596;13.320;2023-08-31T09:21:06;2.87;;;0.83;;
16866;SDS011;8550;52.596;13.320;2023-08-31T09:26:12;2.80;;;1.00;;
16866;SDS011;8550;52.596;13.320;2023-08-31T09:31:16;3.55;;;1.00;;
16866;SDS011;8550;52.596;13.320;2023-08-31T09:36:18;4.40;;;1.03;;
16866;SDS011;8550;52.596;13.320;2023-08-31T09:41:22;2.67;;;1.00;;
16866;SDS011;8550;52.596;13.320;2023-08-31T09:46:25;2.75;;;0.90;;
16866;SDS011;8550;52.596;13.320;2023-08-31T09:51:27;4.70;;;1.23;;
16866;SDS011;8550;52.596;13.320;2023-08-31T09:56:30;2.53;;;1.07;;
16866;SDS011;8550;52.596;13.320;2023-08-31T10:01:36;2.67;;;0.80;;
16866;SDS011;8550;52.596;13.320;2023-08-31T10:06:38;5.03;;;1.05;;
16866;SDS011;8550;52.596;13.320;2023-08-31T10:11:41;2.17;;;0.80;;
16866;SDS011;8550;52.596;13.320;2023-08-31T10:16:44;3.22;;;1.08;;
16866;SDS011;8550;52.596;13.320;2023-08-31T10:21:48;2.20;;;0.60;;
16866;SDS011;8550;52.596;13.320;2023-08-31T10:26:50;3.90;;;0.97;;
16866;SDS011;8550;52.596;13.320;2023-08-31T10:31:54;5.10;;;0.90;;
16866;SDS011;8550;52.596;13.320;2023-08-31T10:36:57;3.47;;;0.82;;
16866;SDS011;8550;52.596;13.320;2023-08-31T10:41:59;2.42;;;0.80;;
16866;SDS011;8550;52.596;13.320;2023-08-31T10:47:04;4.47;;;1.00;;
16866;SDS011;8550;52.596;13.320;2023-08-31T10:52:16;2.60;;;0.90;;
16866;SDS011;8550;52.596;13.320;2023-08-31T10:57:19;3.80;;;1.05;;
16866;SDS011;8550;52.596;13.320;2023-08-31T11:02:34;3.07;;;1.00;;
16866;SDS011;8550;52.596;13.320;2023-08-31T11:07:38;3.85;;;0.90;;
16866;SDS011;8550;52.596;13.320;2023-08-31T11:12:42;4.03;;;1.63;;
16866;SDS011;8550;52.596;13.320;2023-08-31T11:17:48;3.73;;;1.13;;
16866;SDS011;8550;52.596;13.320;2023-08-31T11:22:51;2.53;;;1.07;;
16866;SDS011;8550;52.596;13.320;2023-08-31T11:27:54;2.53;;;0.88;;
16866;SDS011;8550;52.596;13.320;2023-08-31T11:33:01;3.30;;;1.10;;
16866;SDS011;8550;52.596;13.320;2023-08-31T11:38:04;2.30;;;0.83;;
16866;SDS011;8550;52.596;13.320;2023-08-31T11:43:06;3.92;;;1.23;;
16866;SDS011;8550;52.596;13.320;2023-08-31T11:48:10;4.65;;;1.20;;
16866;SDS011;8550;52.596;13.320;2023-08-31T11:53:12;2.93;;;1.20;;
16866;SDS011;8550;52.596;13.320;2023-08-31T11:58:15;3.10;;;0.90;;
16866;SDS011;8550;52.596;13.320;2023-08-31T12:03:18;2.10;;;0.90;;
16866;SDS011;8550;52.596;13.320;2023-08-31T12:08:26;3.70;;;1.00;;
16866;SDS011;8550;52.596;13.320;2023-08-31T12:13:28;3.10;;;1.20;;
16866;SDS011;8550;52.596;13.320;2023-08-31T12:18:31;6.15;;;2.72;;
16866;SDS011;8550;52.596;13.320;2023-08-31T12:23:33;4.38;;;1.27;;
16866;SDS011;8550;52.596;13.320;2023-08-31T12:28:35;5.20;;;1.27;;
16866;SDS011;8550;52.596;13.320;2023-08-31T12:33:39;5.15;;;1.60;;
16866;SDS011;8550;52.596;13.320;2023-08-31T12:38:41;3.17;;;0.73;;
16866;SDS011;8550;52.596;13.320;2023-08-31T12:43:43;2.57;;;0.93;;
16866;SDS011;8550;52.596;13.320;2023-08-31T12:48:46;3.67;;;1.05;;
16866;SDS011;8550;52.596;13.320;2023-08-31T12:53:49;3.90;;;1.10;;
16866;SDS011;8550;52.596;13.320;2023-08-31T12:58:53;3.17;;;1.07;;
16866;SDS011;8550;52.596;13.320;2023-08-31T13:03:56;3.40;;;1.40;;
16866;SDS011;8550;52.596;13.320;2023-08-31T13:08:58;3.97;;;1.50;;
16866;SDS011;8550;52.596;13.320;2023-08-31T13:14:00;3.65;;;1.20;;
16866;SDS011;8550;52.596;13.320;2023-08-31T13:19:05;3.40;;;1.20;;
16866;SDS011;8550;52.596;13.320;2023-08-31T13:24:07;1.77;;;0.50;;
16866;SDS011;8550;52.596;13.320;2023-08-31T13:29:09;2.55;;;0.70;;
16866;SDS011;8550;52.596;13.320;2023-08-31T13:34:13;2.93;;;0.90;;
16866;SDS011;8550;52.596;13.320;2023-08-31T13:39:15;2.25;;;0.68;;
16866;SDS011;8550;52.596;13.320;2023-08-31T13:44:17;2.42;;;0.98;;
16866;SDS011;8550;52.596;13.320;2023-08-31T13:49:22;2.90;;;0.70;;
16866;SDS011;8550;52.596;13.320;2023-08-31T13:54:24;2.60;;;1.17;;
16866;SDS011;8550;52.596;13.320;2023-08-31T13:59:26;2.22;;;0.73;;
16866;SDS011;8550;52.596;13.320;2023-08-31T14:04:30;1.70;;;0.70;;
16866;SDS011;8550;52.596;13.320;2023-08-31T14:09:32;3.83;;;1.03;;
16866;SDS011;8550;52.596;13.320;2023-08-31T14:14:34;2.17;;;0.85;;
16866;SDS011;8550;52.596;13.320;2023-08-31T14:19:38;2.63;;;0.80;;
16866;SDS011;8550;52.596;13.320;2023-08-31T14:24:40;3.60;;;0.83;;
16866;SDS011;8550;52.596;13.320;2023-08-31T14:29:42;3.28;;;0.77;;
16866;SDS011;8550;52.596;13.320;2023-08-31T14:34:45;2.08;;;0.65;;
16866;SDS011;8550;52.596;13.320;2023-08-31T14:39:47;1.77;;;0.60;;
16866;SDS011;8550;52.596;13.320;2023-08-31T14:44:49;1.97;;;0.97;;
16866;SDS011;8550;52.596;13.320;2023-08-31T14:49:54;2.97;;;0.90;;
16866;SDS011;8550;52.596;13.320;2023-08-31T14:54:56;7.95;;;4.13;;
16866;SDS011;8550;52.596;13.320;2023-08-31T14:59:58;2.20;;;0.73;;
16866;SDS011;8550;52.596;13.320;2023-08-31T15:05:01;1.80;;;0.50;;
16866;SDS011;8550;52.596;13.320;2023-08-31T15:10:05;2.65;;;0.60;;
16866;SDS011;8550;52.596;13.320;2023-08-31T15:15:08;1.70;;;0.40;;
16866;SDS011;8550;52.596;13.320;2023-08-31T15:20:12;3.33;;;0.45;;
16866;SDS011;8550;52.596;13.320;2023-08-31T15:25:14;3.10;;;0.60;;
16866;SDS011;8550;52.596;13.320;2023-08-31T15:30:16;2.03;;;0.63;;
16866;SDS011;8550;52.596;13.320;2023-08-31T15:35:21;2.43;;;0.70;;
16866;SDS011;8550;52.596;13.320;2023-08-31T15:40:22;1.45;;;0.40;;
16866;SDS011;8550;52.596;13.320;2023-08-31T15:45:24;1.92;;;0.40;;
16866;SDS011;8550;52.596;13.320;2023-08-31T15:50:28;15.10;;;7.20;;
16866;SDS011;8550;52.596;13.320;2023-08-31T15:55:30;3.85;;;1.15;;
16866;SDS011;8550;52.596;13.320;2023-08-31T16:00:32;3.17;;;0.70;;
16866;SDS011;8550;52.596;13.320;2023-08-31T16:05:35;3.77;;;0.90;;
16866;SDS011;8550;52.596;13.320;2023-08-31T16:10:38;2.45;;;0.50;;
16866;SDS011;8550;52.596;13.320;2023-08-31T16:15:42;1.33;;;0.40;;
16866;SDS011;8550;52.596;13.320;2023-08-31T16:20:48;1.57;;;0.50;;
16866;SDS011;8550;52.596;13.320;2023-08-31T16:25:50;2.43;;;0.73;;
16866;SDS011;8550;52.596;13.320;2023-08-31T16:30:52;1.73;;;0.30;;
16866;SDS011;8550;52.596;13.320;2023-08-31T16:35:57;1.55;;;0.52;;
16866;SDS011;8550;52.596;13.320;2023-08-31T16:40:59;1.90;;;0.57;;
16866;SDS011;8550;52.596;13.320;2023-08-31T16:46:01;2.05;;;0.52;;
16866;SDS011;8550;52.596;13.320;2023-08-31T16:51:05;1.90;;;0.65;;
16866;SDS011;8550;52.596;13.320;2023-08-31T16:56:07;2.07;;;0.60;;
16866;SDS011;8550;52.596;13.320;2023-08-31T17:01:09;2.55;;;0.70;;
16866;SDS011;8550;52.596;13.320;2023-08-31T17:06:12;3.45;;;0.63;;
16866;SDS011;8550;52.596;13.320;2023-08-31T17:11:14;2.20;;;0.63;;
16866;SDS011;8550;52.596;13.320;2023-08-31T17:16:16;1.93;;;0.70;;
16866;SDS011;8550;52.596;13.320;2023-08-31T17:21:19;2.45;;;0.60;;
16866;SDS011;8550;52.596;13.320;2023-08-31T17:26:21;1.95;;;0.60;;
16866;SDS011;8550;52.596;13.320;2023-08-31T17:31:24;2.87;;;0.50;;
16866;SDS011;8550;52.596;13.320;2023-08-31T17:36:27;1.45;;;0.40;;
16866;SDS011;8550;52.596;13.320;2023-08-31T17:41:30;1.88;;;0.52;;
16866;SDS011;8550;52.596;13.320;2023-08-31T17:46:32;1.20;;;0.47;;
16866;SDS011;8550;52.596;13.320;2023-08-31T17:51:35;2.25;;;0.63;;
16866;SDS011;8550;52.596;13.320;2023-08-31T17:56:38;1.85;;;0.40;;
16866;SDS011;8550;52.596;13.320;2023-08-31T18:01:40;2.17;;;0.50;;
16866;SDS011;8550;52.596;13.320;2023-08-31T18:06:44;3.23;;;0.70;;
16866;SDS011;8550;52.596;13.320;2023-08-31T18:11:46;2.28;;;0.63;;
16866;SDS011;8550;52.596;13.320;2023-08-31T18:16:48;4.75;;;0.80;;
16866;SDS011;8550;52.596;13.320;2023-08-31T18:21:51;0.93;;;0.30;;
16866;SDS011;8550;52.596;13.320;2023-08-31T18:26:53;1.33;;;0.47;;
16866;SDS011;8550;52.596;13.320;2023-08-31T18:31:55;3.83;;;0.80;;
16866;SDS011;8550;52.596;13.320;2023-08-31T18:36:58;2.23;;;0.43;;
16866;SDS011;8550;52.596;13.320;2023-08-31T18:42:00;2.45;;;0.50;;
16866;SDS011;8550;52.596;13.320;2023-08-31T18:47:03;0.93;;;0.22;;
16866;SDS011;8550;52.596;13.320;2023-08-31T18:52:07;2.33;;;0.80;;
16866;SDS011;8550;52.596;13.320;2023-08-31T18:57:08;1.30;;;0.33;;
16866;SDS011;8550;52.596;13.320;2023-08-31T19:02:11;2.85;;;0.85;;
16866;SDS011;8550;52.596;13.320;2023-08-31T19:07:14;2.80;;;0.70;;
16866;SDS011;8550;52.596;13.320;2023-08-31T19:12:16;2.63;;;0.60;;
16866;SDS011;8550;52.596;13.320;2023-08-31T19:17:18;2.10;;;0.80;;
16866;SDS011;8550;52.596;13.320;2023-08-31T19:22:21;1.80;;;0.55;;
16866;SDS011;8550;52.596;13.320;2023-08-31T19:27:23;2.00;;;0.50;;
16866;SDS011;8550;52.596;13.320;2023-08-31T19:32:25;2.40;;;0.57;;
16866;SDS011;8550;52.596;13.320;2023-08-31T19:37:30;2.35;;;0.70;;
16866;SDS011;8550;52.596;13.320;2023-08-31T19:42:32;2.00;;;0.60;;
16866;SDS011;8550;52.596;13.320;2023-08-31T19:47:34;3.13;;;0.80;;
16866;SDS011;8550;52.596;13.320;2023-08-31T19:52:38;2.72;;;0.75;;
16866;SDS011;8550;52.596;13.320;2023-08-31T19:57:40;1.60;;;0.63;;
16866;SDS011;8550;52.596;13.320;2023-08-31T20:02:42;2.70;;;0.50;;
16866;SDS011;8550;52.596;13.320;2023-08-31T20:07:45;2.22;;;0.80;;
16866;SDS011;8550;52.596;13.320;2023-08-31T20:12:48;5.68;;;0.73;;
16866;SDS011;8550;52.596;13.320;2023-08-31T20:17:50;6.47;;;2.90;;
16866;SDS011;8550;52.596;13.320;2023-08-31T20:22:54;2.75;;;0.80;;
16866;SDS011;8550;52.596;13.320;2023-08-31T20:27:56;3.38;;;0.90;;
16866;SDS011;8550;52.596;13.320;2023-08-31T20:32:58;2.03;;;0.70;;
16866;SDS011;8550;52.596;13.320;2023-08-31T20:38:01;1.50;;;0.60;;
16866;SDS011;8550;52.596;13.320;2023-08-31T20:43:03;3.10;;;0.77;;
16866;SDS011;8550;52.596;13.320;2023-08-31T20:48:06;2.70;;;0.60;;
16866;SDS011;8550;52.596;13.320;2023-08-31T20:53:10;1.50;;;0.57;;
16866;SDS011;8550;52.596;13.320;2023-08-31T20:58:12;2.90;;;0.70;;
16866;SDS011;8550;52.596;13.320;2023-08-31T21:03:15;3.33;;;0.80;;
16866;SDS011;8550;52.596;13.320;2023-08-31T21:08:18;3.37;;;0.97;;
16866;SDS011;8550;52.596;13.320;2023-08-31T21:13:22;3.63;;;0.93;;
16866;SDS011;8550;52.596;13.320;2023-08-31T21:18:24;2.47;;;0.77;;
16866;SDS011;8550;52.596;13.320;2023-08-31T21:23:27;4.83;;;0.93;;
16866;SDS011;8550;52.596;13.320;2023-08-31T21:28:30;2.23;;;0.60;;
16866;SDS011;8550;52.596;13.320;2023-08-31T21:33:32;2.90;;;1.00;;
16866;SDS011;8550;52.596;13.320;2023-08-31T21:38:35;2.72;;;0.73;;
16866;SDS011;8550;52.596;13.320;2023-08-31T21:43:37;2.10;;;0.70;;
16866;SDS011;8550;52.596;13.320;2023-08-31T21:48:41;2.80;;;0.65;;
16866;SDS011;8550;52.596;13.320;2023-08-31T21:53:44;2.55;;;0.68;;
16866;SDS011;8550;52.596;13.320;2023-08-31T21:58:46;1.77;;;0.70;;
16866;SDS011;8550;52.596;13.320;2023-08-31T22:03:48;1.55;;;0.70;;
16866;SDS011;8550;52.596;13.320;2023-08-31T22:08:51;2.47;;;0.70;;
16866;SDS011;8550;52.596;13.320;2023-08-31T22:13:57;3.53;;;1.37;;
16866;SDS011;8550;52.596;13.320;2023-08-31T22:18:59;2.20;;;0.73;;
16866;SDS011;8550;52.596;13.320;2023-08-31T22:24:03;1.65;;;0.55;;
16866;SDS011;8550;52.596;13.320;2023-08-31T22:29:06;2.25;;;0.80;;
16866;SDS011;8550;52.596;13.320;2023-08-31T22:34:08;2.30;;;1.00;;
16866;SDS011;8550;52.596;13.320;2023-08-31T22:39:11;2.42;;;1.05;;
16866;SDS011;8550;52.596;13.320;2023-08-31T22:44:13;2.28;;;0.88;;
16866;SDS011;8550;52.596;13.320;2023-08-31T22:49:15;1.97;;;0.60;;
16866;SDS011;8550;52.596;13.320;2023-08-31T22:54:18;2.40;;;0.70;;
16866;SDS011;8550;52.596;13.320;2023-08-31T22:59:20;2.92;;;0.68;;
16866;SDS011;8550;52.596;13.320;2023-08-31T23:04:22;3.57;;;0.70;;
16866;SDS011;8550;52.596;13.320;2023-08-31T23:09:26;2.67;;;0.90;;
16866;SDS011;8550;52.596;13.320;2023-08-31T23:14:28;2.30;;;0.90;;
16866;SDS011;8550;52.596;13.320;2023-08-31T23:19:31;2.80;;;0.90;;
16866;SDS011;8550;52.596;13.320;2023-08-31T23:24:34;3.43;;;1.10;;
16866;SDS011;8550;52.596;13.320;2023-08-31T23:29:36;2.85;;;0.95;;
16866;SDS011;8550;52.596;13.320;2023-08-31T23:34:38;3.08;;;0.68;;
16866;SDS011;8550;52.596;13.320;2023-08-31T23:39:42;3.13;;;0.87;;
16866;SDS011;8550;52.596;13.320;2023-08-31T23:44:44;3.83;;;1.00;;
16866;SDS011;8550;52.596;13.320;2023-08-31T23:49:46;2.30;;;0.90;;
16866;SDS011;8550;52.596;13.320;2023-08-31T23:54:49;2.93;;;1.17;;
16866;SDS011;8550;52.596;13.320;2023-08-31T23:59:52;2.37;;;0.83;;
